sensor_id;sensor_type;location;lat;lon;timestamp;P1;durP1;ratioP1;P2;durP2;ratioP2
66567;SDS011;53422;49.296;6.900;2023-02-28T00:00:16;0.70;;;0.32;;
66567;SDS011;53422;49.296;6.900;2023-02-28T00:02:42;1.48;;;0.90;;
66567;SDS011;53422;49.296;6.900;2023-02-28T00:05:10;3.55;;;1.10;;
66567;SDS011;53422;49.296;6.900;2023-02-28T00:07:37;1.98;;;1.10;;
66567;SDS011;53422;49.296;6.900;2023-02-28T00:10:04;1.13;;;0.57;;
66567;SDS011;53422;49.296;6.900;2023-02-28T00:12:32;2.05;;;1.23;;
66567;SDS011;53422;49.296;6.900;2023-02-28T00:15:02;2.35;;;0.88;;
66567;SDS011;53422;49.296;6.900;2023-02-28T00:17:31;0.90;;;0.73;;
66567;SDS011;53422;49.296;6.900;2023-02-28T00:19:57;3.63;;;1.08;;
66567;SDS011;53422;49.296;6.900;2023-02-28T00:22:29;2.42;;;1.05;;
66567;SDS011;53422;49.296;6.900;2023-02-28T00:24:55;1.92;;;1.00;;
66567;SDS011;53422;49.296;6.900;2023-02-28T00:27:21;3.95;;;0.73;;
66567;SDS011;53422;49.296;6.900;2023-02-28T00:29:47;1.55;;;0.50;;
66567;SDS011;53422;49.296;6.900;2023-02-28T00:32:13;2.63;;;0.60;;
66567;SDS011;53422;49.296;6.900;2023-02-28T00:34:39;1.65;;;0.60;;
66567;SDS011;53422;49.296;6.900;2023-02-28T00:37:08;2.80;;;1.30;;
66567;SDS011;53422;49.296;6.900;2023-02-28T00:39:36;2.67;;;1.20;;
66567;SDS011;53422;49.296;6.900;2023-02-28T00:42:03;1.65;;;0.93;;
66567;SDS011;53422;49.296;6.900;2023-02-28T00:44:29;3.50;;;1.05;;
66567;SDS011;53422;49.296;6.900;2023-02-28T00:46:56;2.60;;;1.10;;
66567;SDS011;53422;49.296;6.900;2023-02-28T00:49:22;4.10;;;1.23;;
66567;SDS011;53422;49.296;6.900;2023-02-28T00:51:48;1.98;;;1.00;;
66567;SDS011;53422;49.296;6.900;2023-02-28T00:54:14;4.20;;;0.90;;
66567;SDS011;53422;49.296;6.900;2023-02-28T00:56:40;2.17;;;1.05;;
66567;SDS011;53422;49.296;6.900;2023-02-28T00:59:06;2.35;;;1.13;;
66567;SDS011;53422;49.296;6.900;2023-02-28T01:01:31;2.25;;;1.02;;
66567;SDS011;53422;49.296;6.900;2023-02-28T01:03:57;0.90;;;0.45;;
66567;SDS011;53422;49.296;6.900;2023-02-28T01:06:23;5.30;;;0.82;;
66567;SDS011;53422;49.296;6.900;2023-02-28T01:08:48;2.13;;;1.00;;
66567;SDS011;53422;49.296;6.900;2023-02-28T01:11:15;3.10;;;1.05;;
66567;SDS011;53422;49.296;6.900;2023-02-28T01:13:42;3.00;;;1.17;;
66567;SDS011;53422;49.296;6.900;2023-02-28T01:16:09;1.05;;;0.60;;
66567;SDS011;53422;49.296;6.900;2023-02-28T01:18:35;1.33;;;0.77;;
66567;SDS011;53422;49.296;6.900;2023-02-28T01:21:05;2.55;;;1.05;;
66567;SDS011;53422;49.296;6.900;2023-02-28T01:23:32;2.08;;;1.15;;
66567;SDS011;53422;49.296;6.900;2023-02-28T01:26:03;1.73;;;0.85;;
66567;SDS011;53422;49.296;6.900;2023-02-28T01:28:30;2.47;;;1.00;;
66567;SDS011;53422;49.296;6.900;2023-02-28T01:30:55;0.35;;;0.30;;
66567;SDS011;53422;49.296;6.900;2023-02-28T01:33:21;2.40;;;0.98;;
66567;SDS011;53422;49.296;6.900;2023-02-28T01:35:47;1.70;;;0.93;;
66567;SDS011;53422;49.296;6.900;2023-02-28T01:38:13;1.17;;;0.77;;
66567;SDS011;53422;49.296;6.900;2023-02-28T01:40:39;1.38;;;0.80;;
66567;SDS011;53422;49.296;6.900;2023-02-28T01:43:09;0.65;;;0.50;;
66567;SDS011;53422;49.296;6.900;2023-02-28T01:45:50;3.63;;;1.42;;
66567;SDS011;53422;49.296;6.900;2023-02-28T01:48:21;0.45;;;0.43;;
66567;SDS011;53422;49.296;6.900;2023-02-28T01:50:52;1.67;;;0.80;;
66567;SDS011;53422;49.296;6.900;2023-02-28T01:53:21;2.88;;;1.35;;
66567;SDS011;53422;49.296;6.900;2023-02-28T01:55:55;2.40;;;1.15;;
66567;SDS011;53422;49.296;6.900;2023-02-28T01:58:21;2.75;;;0.90;;
66567;SDS011;53422;49.296;6.900;2023-02-28T02:00:47;3.33;;;1.08;;
66567;SDS011;53422;49.296;6.900;2023-02-28T02:03:14;0.50;;;0.43;;
66567;SDS011;53422;49.296;6.900;2023-02-28T02:05:44;2.35;;;0.93;;
66567;SDS011;53422;49.296;6.900;2023-02-28T02:08:13;1.40;;;0.80;;
66567;SDS011;53422;49.296;6.900;2023-02-28T02:10:50;1.45;;;0.60;;
66567;SDS011;53422;49.296;6.900;2023-02-28T02:13:30;2.47;;;1.45;;
66567;SDS011;53422;49.296;6.900;2023-02-28T02:18:54;2.08;;;0.80;;
66567;SDS011;53422;49.296;6.900;2023-02-28T02:39:37;2.22;;;0.98;;
66567;SDS011;53422;49.296;6.900;2023-02-28T02:42:05;2.00;;;1.00;;
66567;SDS011;53422;49.296;6.900;2023-02-28T02:44:40;2.72;;;1.30;;
66567;SDS011;53422;49.296;6.900;2023-02-28T02:47:13;1.63;;;0.77;;
66567;SDS011;53422;49.296;6.900;2023-02-28T02:49:44;4.50;;;1.23;;
66567;SDS011;53422;49.296;6.900;2023-02-28T02:52:17;1.98;;;1.02;;
66567;SDS011;53422;49.296;6.900;2023-02-28T02:54:46;2.75;;;1.48;;
66567;SDS011;53422;49.296;6.900;2023-02-28T02:57:20;2.70;;;1.20;;
66567;SDS011;53422;49.296;6.900;2023-02-28T02:59:50;2.72;;;1.20;;
66567;SDS011;53422;49.296;6.900;2023-02-28T03:02:18;1.98;;;1.13;;
66567;SDS011;53422;49.296;6.900;2023-02-28T03:04:51;2.78;;;1.45;;
66567;SDS011;53422;49.296;6.900;2023-02-28T03:07:20;2.25;;;0.88;;
66567;SDS011;53422;49.296;6.900;2023-02-28T03:09:50;2.72;;;2.08;;
66567;SDS011;53422;49.296;6.900;2023-02-28T03:12:19;5.15;;;1.55;;
66567;SDS011;53422;49.296;6.900;2023-02-28T03:20:01;3.20;;;1.42;;
66567;SDS011;53422;49.296;6.900;2023-02-28T03:22:51;4.70;;;1.92;;
66567;SDS011;53422;49.296;6.900;2023-02-28T03:30:30;4.45;;;1.63;;
66567;SDS011;53422;49.296;6.900;2023-02-28T03:33:32;3.15;;;1.83;;
66567;SDS011;53422;49.296;6.900;2023-02-28T03:36:22;3.38;;;1.52;;
66567;SDS011;53422;49.296;6.900;2023-02-28T03:38:57;2.20;;;1.42;;
66567;SDS011;53422;49.296;6.900;2023-02-28T03:41:38;3.40;;;1.38;;
66567;SDS011;53422;49.296;6.900;2023-02-28T03:44:16;4.70;;;1.40;;
66567;SDS011;53422;49.296;6.900;2023-02-28T03:46:48;2.25;;;1.10;;
66567;SDS011;53422;49.296;6.900;2023-02-28T03:49:24;6.05;;;1.58;;
66567;SDS011;53422;49.296;6.900;2023-02-28T03:51:56;1.38;;;0.88;;
66567;SDS011;53422;49.296;6.900;2023-02-28T03:54:29;3.00;;;1.38;;
66567;SDS011;53422;49.296;6.900;2023-02-28T03:57:05;3.97;;;2.03;;
66567;SDS011;53422;49.296;6.900;2023-02-28T03:59:49;4.15;;;1.60;;
66567;SDS011;53422;49.296;6.900;2023-02-28T04:02:21;3.28;;;1.90;;
66567;SDS011;53422;49.296;6.900;2023-02-28T04:04:47;3.08;;;1.38;;
66567;SDS011;53422;49.296;6.900;2023-02-28T04:07:13;1.40;;;0.80;;
66567;SDS011;53422;49.296;6.900;2023-02-28T04:09:39;7.20;;;2.10;;
66567;SDS011;53422;49.296;6.900;2023-02-28T04:12:05;1.33;;;0.80;;
66567;SDS011;53422;49.296;6.900;2023-02-28T04:14:31;1.00;;;0.73;;
66567;SDS011;53422;49.296;6.900;2023-02-28T04:16:57;3.17;;;1.45;;
66567;SDS011;53422;49.296;6.900;2023-02-28T04:19:22;3.35;;;2.10;;
66567;SDS011;53422;49.296;6.900;2023-02-28T04:21:49;1.63;;;1.05;;
66567;SDS011;53422;49.296;6.900;2023-02-28T04:24:26;9.07;;;2.15;;
66567;SDS011;53422;49.296;6.900;2023-02-28T04:26:54;7.90;;;1.70;;
66567;SDS011;53422;49.296;6.900;2023-02-28T04:29:30;4.15;;;2.13;;
66567;SDS011;53422;49.296;6.900;2023-02-28T04:31:57;4.57;;;2.53;;
66567;SDS011;53422;49.296;6.900;2023-02-28T04:34:25;1.58;;;0.93;;
66567;SDS011;53422;49.296;6.900;2023-02-28T04:36:51;1.92;;;1.00;;
66567;SDS011;53422;49.296;6.900;2023-02-28T04:39:19;2.88;;;0.93;;
66567;SDS011;53422;49.296;6.900;2023-02-28T04:41:46;1.90;;;1.45;;
66567;SDS011;53422;49.296;6.900;2023-02-28T04:44:12;3.13;;;1.40;;
66567;SDS011;53422;49.296;6.900;2023-02-28T04:46:38;2.08;;;1.23;;
66567;SDS011;53422;49.296;6.900;2023-02-28T04:49:03;5.50;;;2.28;;
66567;SDS011;53422;49.296;6.900;2023-02-28T04:51:29;4.40;;;1.80;;
66567;SDS011;53422;49.296;6.900;2023-02-28T04:53:55;4.10;;;1.63;;
66567;SDS011;53422;49.296;6.900;2023-02-28T04:56:21;3.50;;;1.10;;
66567;SDS011;53422;49.296;6.900;2023-02-28T04:58:47;4.47;;;2.50;;
66567;SDS011;53422;49.296;6.900;2023-02-28T05:03:44;3.28;;;1.95;;
66567;SDS011;53422;49.296;6.900;2023-02-28T05:06:10;0.98;;;0.73;;
66567;SDS011;53422;49.296;6.900;2023-02-28T05:08:37;1.02;;;0.68;;
66567;SDS011;53422;49.296;6.900;2023-02-28T05:11:03;4.35;;;2.10;;
66567;SDS011;53422;49.296;6.900;2023-02-28T05:13:30;9.93;;;2.83;;
66567;SDS011;53422;49.296;6.900;2023-02-28T05:15:56;4.75;;;2.63;;
66567;SDS011;53422;49.296;6.900;2023-02-28T05:18:22;4.50;;;2.78;;
66567;SDS011;53422;49.296;6.900;2023-02-28T05:20:47;1.00;;;0.82;;
66567;SDS011;53422;49.296;6.900;2023-02-28T05:23:13;6.13;;;2.75;;
66567;SDS011;53422;49.296;6.900;2023-02-28T05:25:47;4.03;;;1.70;;
66567;SDS011;53422;49.296;6.900;2023-02-28T05:28:13;6.45;;;3.22;;
66567;SDS011;53422;49.296;6.900;2023-02-28T05:30:39;3.67;;;1.83;;
66567;SDS011;53422;49.296;6.900;2023-02-28T05:33:05;3.42;;;1.77;;
66567;SDS011;53422;49.296;6.900;2023-02-28T05:35:30;10.50;;;2.13;;
66567;SDS011;53422;49.296;6.900;2023-02-28T05:37:56;5.75;;;2.83;;
66567;SDS011;53422;49.296;6.900;2023-02-28T05:40:22;5.78;;;3.05;;
66567;SDS011;53422;49.296;6.900;2023-02-28T05:42:48;8.55;;;3.90;;
66567;SDS011;53422;49.296;6.900;2023-02-28T05:45:15;4.88;;;2.25;;
66567;SDS011;53422;49.296;6.900;2023-02-28T05:47:42;4.97;;;1.77;;
66567;SDS011;53422;49.296;6.900;2023-02-28T05:50:08;6.93;;;3.00;;
66567;SDS011;53422;49.296;6.900;2023-02-28T05:52:35;7.93;;;3.72;;
66567;SDS011;53422;49.296;6.900;2023-02-28T05:55:02;5.30;;;2.97;;
66567;SDS011;53422;49.296;6.900;2023-02-28T05:57:29;3.17;;;1.83;;
66567;SDS011;53422;49.296;6.900;2023-02-28T05:59:55;3.83;;;1.95;;
66567;SDS011;53422;49.296;6.900;2023-02-28T06:02:20;4.45;;;2.15;;
66567;SDS011;53422;49.296;6.900;2023-02-28T06:04:46;5.45;;;2.58;;
66567;SDS011;53422;49.296;6.900;2023-02-28T06:07:12;5.63;;;2.55;;
66567;SDS011;53422;49.296;6.900;2023-02-28T06:09:37;3.83;;;2.17;;
66567;SDS011;53422;49.296;6.900;2023-02-28T06:12:04;3.97;;;1.98;;
66567;SDS011;53422;49.296;6.900;2023-02-28T06:14:32;6.38;;;3.15;;
66567;SDS011;53422;49.296;6.900;2023-02-28T06:16:59;8.35;;;3.53;;
66567;SDS011;53422;49.296;6.900;2023-02-28T06:19:25;4.63;;;2.28;;
66567;SDS011;53422;49.296;6.900;2023-02-28T06:21:51;8.18;;;4.28;;
66567;SDS011;53422;49.296;6.900;2023-02-28T06:24:19;3.10;;;1.25;;
66567;SDS011;53422;49.296;6.900;2023-02-28T06:26:45;9.25;;;2.90;;
66567;SDS011;53422;49.296;6.900;2023-02-28T06:29:11;10.75;;;4.93;;
66567;SDS011;53422;49.296;6.900;2023-02-28T06:31:38;4.10;;;1.92;;
66567;SDS011;53422;49.296;6.900;2023-02-28T06:34:04;5.90;;;2.40;;
66567;SDS011;53422;49.296;6.900;2023-02-28T06:36:29;4.15;;;1.85;;
66567;SDS011;53422;49.296;6.900;2023-02-28T06:38:55;6.55;;;2.25;;
66567;SDS011;53422;49.296;6.900;2023-02-28T06:41:25;7.78;;;3.08;;
66567;SDS011;53422;49.296;6.900;2023-02-28T06:43:51;7.28;;;3.97;;
66567;SDS011;53422;49.296;6.900;2023-02-28T06:46:17;8.55;;;4.20;;
66567;SDS011;53422;49.296;6.900;2023-02-28T06:48:43;8.52;;;4.40;;
66567;SDS011;53422;49.296;6.900;2023-02-28T06:51:11;8.32;;;4.30;;
66567;SDS011;53422;49.296;6.900;2023-02-28T06:53:39;8.18;;;4.15;;
66567;SDS011;53422;49.296;6.900;2023-02-28T06:56:06;10.40;;;4.72;;
66567;SDS011;53422;49.296;6.900;2023-02-28T06:58:34;7.25;;;3.05;;
66567;SDS011;53422;49.296;6.900;2023-02-28T07:01:00;6.07;;;3.20;;
66567;SDS011;53422;49.296;6.900;2023-02-28T07:03:25;7.35;;;3.95;;
66567;SDS011;53422;49.296;6.900;2023-02-28T07:05:51;3.22;;;1.63;;
66567;SDS011;53422;49.296;6.900;2023-02-28T07:08:17;6.03;;;3.28;;
66567;SDS011;53422;49.296;6.900;2023-02-28T07:10:43;7.05;;;3.00;;
66567;SDS011;53422;49.296;6.900;2023-02-28T07:13:09;6.85;;;3.20;;
66567;SDS011;53422;49.296;6.900;2023-02-28T07:15:35;10.73;;;4.35;;
66567;SDS011;53422;49.296;6.900;2023-02-28T07:18:02;6.30;;;2.72;;
66567;SDS011;53422;49.296;6.900;2023-02-28T07:20:28;2.92;;;1.20;;
66567;SDS011;53422;49.296;6.900;2023-02-28T07:22:54;4.28;;;2.17;;
66567;SDS011;53422;49.296;6.900;2023-02-28T07:25:28;6.38;;;3.28;;
66567;SDS011;53422;49.296;6.900;2023-02-28T07:27:54;3.63;;;2.13;;
66567;SDS011;53422;49.296;6.900;2023-02-28T07:30:21;7.25;;;3.53;;
66567;SDS011;53422;49.296;6.900;2023-02-28T07:32:46;5.82;;;1.98;;
66567;SDS011;53422;49.296;6.900;2023-02-28T07:35:12;3.55;;;2.10;;
66567;SDS011;53422;49.296;6.900;2023-02-28T07:37:40;9.70;;;3.53;;
66567;SDS011;53422;49.296;6.900;2023-02-28T07:40:07;10.77;;;5.07;;
66567;SDS011;53422;49.296;6.900;2023-02-28T07:42:35;5.43;;;2.00;;
66567;SDS011;53422;49.296;6.900;2023-02-28T07:45:01;10.50;;;3.75;;
66567;SDS011;53422;49.296;6.900;2023-02-28T07:47:28;10.02;;;5.18;;
66567;SDS011;53422;49.296;6.900;2023-02-28T07:49:55;6.68;;;3.35;;
66567;SDS011;53422;49.296;6.900;2023-02-28T07:52:21;7.25;;;3.08;;
66567;SDS011;53422;49.296;6.900;2023-02-28T07:54:49;7.55;;;3.40;;
66567;SDS011;53422;49.296;6.900;2023-02-28T07:57:15;6.82;;;3.65;;
66567;SDS011;53422;49.296;6.900;2023-02-28T07:59:41;5.95;;;2.25;;
66567;SDS011;53422;49.296;6.900;2023-02-28T08:02:16;5.60;;;3.45;;
66567;SDS011;53422;49.296;6.900;2023-02-28T08:04:43;3.80;;;2.05;;
66567;SDS011;53422;49.296;6.900;2023-02-28T08:07:09;8.57;;;3.38;;
66567;SDS011;53422;49.296;6.900;2023-02-28T08:09:38;7.85;;;4.38;;
66567;SDS011;53422;49.296;6.900;2023-02-28T08:12:05;2.15;;;1.30;;
66567;SDS011;53422;49.296;6.900;2023-02-28T08:14:32;7.50;;;3.47;;
66567;SDS011;53422;49.296;6.900;2023-02-28T08:16:58;8.20;;;4.30;;
66567;SDS011;53422;49.296;6.900;2023-02-28T08:19:24;4.75;;;2.50;;
66567;SDS011;53422;49.296;6.900;2023-02-28T08:21:50;4.25;;;1.77;;
66567;SDS011;53422;49.296;6.900;2023-02-28T08:24:15;8.30;;;3.72;;
66567;SDS011;53422;49.296;6.900;2023-02-28T08:26:41;3.13;;;1.77;;
66567;SDS011;53422;49.296;6.900;2023-02-28T08:29:06;3.50;;;1.60;;
66567;SDS011;53422;49.296;6.900;2023-02-28T08:31:32;6.72;;;3.13;;
66567;SDS011;53422;49.296;6.900;2023-02-28T08:33:58;10.77;;;4.38;;
66567;SDS011;53422;49.296;6.900;2023-02-28T08:36:24;9.05;;;4.50;;
66567;SDS011;53422;49.296;6.900;2023-02-28T08:38:53;6.75;;;2.80;;
66567;SDS011;53422;49.296;6.900;2023-02-28T08:41:19;3.45;;;1.65;;
66567;SDS011;53422;49.296;6.900;2023-02-28T08:43:44;5.18;;;2.63;;
66567;SDS011;53422;49.296;6.900;2023-02-28T08:46:11;6.97;;;3.72;;
66567;SDS011;53422;49.296;6.900;2023-02-28T08:48:38;6.65;;;2.45;;
66567;SDS011;53422;49.296;6.900;2023-02-28T08:53:32;6.32;;;3.60;;
66567;SDS011;53422;49.296;6.900;2023-02-28T08:58:24;5.60;;;2.83;;
66567;SDS011;53422;49.296;6.900;2023-02-28T09:00:50;7.05;;;4.65;;
66567;SDS011;53422;49.296;6.900;2023-02-28T09:03:16;5.03;;;2.72;;
66567;SDS011;53422;49.296;6.900;2023-02-28T09:05:51;6.95;;;3.38;;
66567;SDS011;53422;49.296;6.900;2023-02-28T09:08:21;6.20;;;2.65;;
66567;SDS011;53422;49.296;6.900;2023-02-28T09:10:49;8.50;;;3.85;;
66567;SDS011;53422;49.296;6.900;2023-02-28T09:13:14;7.13;;;3.15;;
66567;SDS011;53422;49.296;6.900;2023-02-28T09:15:40;5.38;;;2.30;;
66567;SDS011;53422;49.296;6.900;2023-02-28T09:18:06;6.10;;;2.72;;
66567;SDS011;53422;49.296;6.900;2023-02-28T09:20:31;6.68;;;3.20;;
66567;SDS011;53422;49.296;6.900;2023-02-28T09:22:57;6.13;;;3.08;;
66567;SDS011;53422;49.296;6.900;2023-02-28T09:25:22;8.23;;;2.97;;
66567;SDS011;53422;49.296;6.900;2023-02-28T09:27:48;7.13;;;2.33;;
66567;SDS011;53422;49.296;6.900;2023-02-28T09:30:14;2.47;;;1.42;;
66567;SDS011;53422;49.296;6.900;2023-02-28T09:32:40;2.72;;;1.85;;
66567;SDS011;53422;49.296;6.900;2023-02-28T09:35:05;6.85;;;3.28;;
66567;SDS011;53422;49.296;6.900;2023-02-28T09:37:31;8.23;;;3.00;;
66567;SDS011;53422;49.296;6.900;2023-02-28T09:39:57;7.38;;;4.30;;
66567;SDS011;53422;49.296;6.900;2023-02-28T09:42:31;3.83;;;2.08;;
66567;SDS011;53422;49.296;6.900;2023-02-28T09:44:58;5.38;;;2.67;;
66567;SDS011;53422;49.296;6.900;2023-02-28T09:47:28;4.85;;;2.40;;
66567;SDS011;53422;49.296;6.900;2023-02-28T09:49:58;3.67;;;1.85;;
66567;SDS011;53422;49.296;6.900;2023-02-28T09:52:36;3.05;;;2.05;;
66567;SDS011;53422;49.296;6.900;2023-02-28T09:57:43;6.70;;;4.28;;
66567;SDS011;53422;49.296;6.900;2023-02-28T10:02:48;7.30;;;3.17;;
66567;SDS011;53422;49.296;6.900;2023-02-28T10:08:25;4.50;;;2.45;;
66567;SDS011;53422;49.296;6.900;2023-02-28T10:13:35;4.68;;;2.28;;
66567;SDS011;53422;49.296;6.900;2023-02-28T10:19:01;4.82;;;2.13;;
66567;SDS011;53422;49.296;6.900;2023-02-28T10:21:37;5.10;;;2.42;;
66567;SDS011;53422;49.296;6.900;2023-02-28T10:29:49;4.20;;;1.85;;
66567;SDS011;53422;49.296;6.900;2023-02-28T10:32:18;6.55;;;2.05;;
66567;SDS011;53422;49.296;6.900;2023-02-28T10:35:10;7.80;;;3.50;;
66567;SDS011;53422;49.296;6.900;2023-02-28T10:37:43;5.95;;;2.70;;
66567;SDS011;53422;49.296;6.900;2023-02-28T10:42:54;4.05;;;2.05;;
66567;SDS011;53422;49.296;6.900;2023-02-28T10:45:20;5.75;;;2.38;;
66567;SDS011;53422;49.296;6.900;2023-02-28T10:47:59;6.93;;;3.33;;
66567;SDS011;53422;49.296;6.900;2023-02-28T10:50:35;10.13;;;3.70;;
66567;SDS011;53422;49.296;6.900;2023-02-28T11:01:44;6.97;;;2.85;;
66567;SDS011;53422;49.296;6.900;2023-02-28T11:07:39;6.13;;;3.25;;
66567;SDS011;53422;49.296;6.900;2023-02-28T11:09:51;5.75;;;3.30;;
66567;SDS011;53422;49.296;6.900;2023-02-28T11:14:54;7.65;;;2.40;;
66567;SDS011;53422;49.296;6.900;2023-02-28T11:17:24;5.40;;;2.38;;
66567;SDS011;53422;49.296;6.900;2023-02-28T11:19:53;3.95;;;2.25;;
66567;SDS011;53422;49.296;6.900;2023-02-28T11:22:43;6.20;;;3.35;;
66567;SDS011;53422;49.296;6.900;2023-02-28T11:25:16;4.03;;;1.67;;
66567;SDS011;53422;49.296;6.900;2023-02-28T11:27:57;5.32;;;3.20;;
66567;SDS011;53422;49.296;6.900;2023-02-28T11:32:53;5.18;;;2.53;;
66567;SDS011;53422;49.296;6.900;2023-02-28T11:37:54;7.47;;;4.15;;
66567;SDS011;53422;49.296;6.900;2023-02-28T11:48:42;4.07;;;1.98;;
66567;SDS011;53422;49.296;6.900;2023-02-28T12:02:15;6.65;;;3.70;;
66567;SDS011;53422;49.296;6.900;2023-02-28T12:08:26;5.22;;;2.47;;
66567;SDS011;53422;49.296;6.900;2023-02-28T12:19:34;3.72;;;2.58;;
66567;SDS011;53422;49.296;6.900;2023-02-28T12:22:11;4.68;;;2.45;;
66567;SDS011;53422;49.296;6.900;2023-02-28T12:25:08;8.70;;;3.65;;
66567;SDS011;53422;49.296;6.900;2023-02-28T12:28:02;3.88;;;2.25;;
66567;SDS011;53422;49.296;6.900;2023-02-28T12:30:30;8.48;;;4.32;;
66567;SDS011;53422;49.296;6.900;2023-02-28T12:33:08;8.48;;;5.25;;
66567;SDS011;53422;49.296;6.900;2023-02-28T12:35:38;8.07;;;4.47;;
66567;SDS011;53422;49.296;6.900;2023-02-28T12:38:17;8.98;;;3.15;;
66567;SDS011;53422;49.296;6.900;2023-02-28T12:40:48;9.15;;;2.90;;
66567;SDS011;53422;49.296;6.900;2023-02-28T12:43:27;8.82;;;4.20;;
66567;SDS011;53422;49.296;6.900;2023-02-28T12:46:04;7.65;;;4.43;;
66567;SDS011;53422;49.296;6.900;2023-02-28T12:49:36;7.30;;;3.78;;
66567;SDS011;53422;49.296;6.900;2023-02-28T12:51:34;9.07;;;4.65;;
66567;SDS011;53422;49.296;6.900;2023-02-28T12:59:13;10.02;;;3.85;;
66567;SDS011;53422;49.296;6.900;2023-02-28T13:01:57;6.32;;;3.72;;
66567;SDS011;53422;49.296;6.900;2023-02-28T13:10:44;7.03;;;3.42;;
66567;SDS011;53422;49.296;6.900;2023-02-28T13:13:20;8.30;;;4.38;;
66567;SDS011;53422;49.296;6.900;2023-02-28T13:18:37;10.20;;;3.97;;
66567;SDS011;53422;49.296;6.900;2023-02-28T13:32:18;5.78;;;2.25;;
66567;SDS011;53422;49.296;6.900;2023-02-28T13:34:33;7.20;;;3.78;;
66567;SDS011;53422;49.296;6.900;2023-02-28T13:39:54;6.80;;;3.13;;
66567;SDS011;53422;49.296;6.900;2023-02-28T13:50:21;10.10;;;5.15;;
66567;SDS011;53422;49.296;6.900;2023-02-28T14:06:28;8.63;;;4.50;;
66567;SDS011;53422;49.296;6.900;2023-02-28T14:11:41;15.02;;;4.82;;
66567;SDS011;53422;49.296;6.900;2023-02-28T14:14:08;11.65;;;5.65;;
66567;SDS011;53422;49.296;6.900;2023-02-28T14:16:55;8.82;;;4.40;;
66567;SDS011;53422;49.296;6.900;2023-02-28T14:19:26;6.35;;;3.00;;
66567;SDS011;53422;49.296;6.900;2023-02-28T14:27:58;9.18;;;3.58;;
66567;SDS011;53422;49.296;6.900;2023-02-28T14:30:43;8.02;;;4.43;;
66567;SDS011;53422;49.296;6.900;2023-02-28T14:33:23;10.32;;;3.72;;
66567;SDS011;53422;49.296;6.900;2023-02-28T14:36:04;8.07;;;4.00;;
66567;SDS011;53422;49.296;6.900;2023-02-28T14:38:41;10.27;;;4.68;;
66567;SDS011;53422;49.296;6.900;2023-02-28T14:41:20;10.32;;;5.07;;
66567;SDS011;53422;49.296;6.900;2023-02-28T14:43:53;9.60;;;3.70;;
66567;SDS011;53422;49.296;6.900;2023-02-28T14:46:22;12.05;;;4.70;;
66567;SDS011;53422;49.296;6.900;2023-02-28T14:49:12;8.95;;;4.13;;
66567;SDS011;53422;49.296;6.900;2023-02-28T14:52:30;9.60;;;4.75;;
66567;SDS011;53422;49.296;6.900;2023-02-28T14:54:52;4.53;;;2.55;;
66567;SDS011;53422;49.296;6.900;2023-02-28T14:57:29;6.80;;;2.63;;
66567;SDS011;53422;49.296;6.900;2023-02-28T14:59:57;6.25;;;3.17;;
66567;SDS011;53422;49.296;6.900;2023-02-28T15:03:27;9.80;;;4.30;;
66567;SDS011;53422;49.296;6.900;2023-02-28T15:05:57;9.23;;;5.00;;
66567;SDS011;53422;49.296;6.900;2023-02-28T15:10:58;13.05;;;4.82;;
66567;SDS011;53422;49.296;6.900;2023-02-28T15:13:34;8.15;;;2.65;;
66567;SDS011;53422;49.296;6.900;2023-02-28T15:16:10;8.50;;;3.03;;
66567;SDS011;53422;49.296;6.900;2023-02-28T15:23:32;5.57;;;2.67;;
66567;SDS011;53422;49.296;6.900;2023-02-28T15:26:01;6.85;;;3.33;;
66567;SDS011;53422;49.296;6.900;2023-02-28T15:28:27;11.05;;;3.78;;
66567;SDS011;53422;49.296;6.900;2023-02-28T15:30:55;9.50;;;5.38;;
66567;SDS011;53422;49.296;6.900;2023-02-28T15:33:25;9.10;;;4.43;;
66567;SDS011;53422;49.296;6.900;2023-02-28T15:36:03;9.75;;;4.43;;
66567;SDS011;53422;49.296;6.900;2023-02-28T15:38:37;7.32;;;3.95;;
66567;SDS011;53422;49.296;6.900;2023-02-28T15:41:03;10.38;;;5.22;;
66567;SDS011;53422;49.296;6.900;2023-02-28T15:43:36;9.77;;;4.72;;
66567;SDS011;53422;49.296;6.900;2023-02-28T15:46:05;8.85;;;4.90;;
66567;SDS011;53422;49.296;6.900;2023-02-28T15:48:48;8.48;;;3.38;;
66567;SDS011;53422;49.296;6.900;2023-02-28T15:54:06;9.52;;;5.85;;
66567;SDS011;53422;49.296;6.900;2023-02-28T15:56:35;7.60;;;3.33;;
66567;SDS011;53422;49.296;6.900;2023-02-28T15:59:12;6.25;;;3.38;;
66567;SDS011;53422;49.296;6.900;2023-02-28T16:01:41;3.90;;;1.77;;
66567;SDS011;53422;49.296;6.900;2023-02-28T16:04:12;7.90;;;4.05;;
66567;SDS011;53422;49.296;6.900;2023-02-28T16:06:44;11.73;;;2.95;;
66567;SDS011;53422;49.296;6.900;2023-02-28T16:09:30;9.40;;;4.53;;
66567;SDS011;53422;49.296;6.900;2023-02-28T16:11:59;11.05;;;3.97;;
66567;SDS011;53422;49.296;6.900;2023-02-28T16:14:30;7.88;;;3.47;;
66567;SDS011;53422;49.296;6.900;2023-02-28T16:17:02;5.95;;;2.55;;
66567;SDS011;53422;49.296;6.900;2023-02-28T16:19:30;7.50;;;3.67;;
66567;SDS011;53422;49.296;6.900;2023-02-28T16:21:56;8.77;;;3.60;;
66567;SDS011;53422;49.296;6.900;2023-02-28T16:24:22;6.88;;;3.53;;
66567;SDS011;53422;49.296;6.900;2023-02-28T16:26:48;8.70;;;4.05;;
66567;SDS011;53422;49.296;6.900;2023-02-28T16:29:27;10.60;;;5.35;;
66567;SDS011;53422;49.296;6.900;2023-02-28T16:31:59;11.27;;;5.60;;
66567;SDS011;53422;49.296;6.900;2023-02-28T16:34:26;10.50;;;5.10;;
66567;SDS011;53422;49.296;6.900;2023-02-28T16:36:52;10.68;;;5.90;;
66567;SDS011;53422;49.296;6.900;2023-02-28T16:39:18;11.88;;;5.75;;
66567;SDS011;53422;49.296;6.900;2023-02-28T16:41:47;5.80;;;3.03;;
66567;SDS011;53422;49.296;6.900;2023-02-28T16:44:28;5.47;;;2.38;;
66567;SDS011;53422;49.296;6.900;2023-02-28T16:46:56;8.60;;;3.88;;
66567;SDS011;53422;49.296;6.900;2023-02-28T16:49:21;8.38;;;3.88;;
66567;SDS011;53422;49.296;6.900;2023-02-28T16:51:47;10.27;;;5.00;;
66567;SDS011;53422;49.296;6.900;2023-02-28T16:54:13;7.57;;;3.38;;
66567;SDS011;53422;49.296;6.900;2023-02-28T16:56:43;8.75;;;4.88;;
66567;SDS011;53422;49.296;6.900;2023-02-28T16:59:10;7.80;;;3.05;;
66567;SDS011;53422;49.296;6.900;2023-02-28T17:01:37;12.80;;;5.32;;
66567;SDS011;53422;49.296;6.900;2023-02-28T17:04:03;9.48;;;4.38;;
66567;SDS011;53422;49.296;6.900;2023-02-28T17:06:29;7.60;;;3.72;;
66567;SDS011;53422;49.296;6.900;2023-02-28T17:08:56;6.85;;;2.88;;
66567;SDS011;53422;49.296;6.900;2023-02-28T17:11:23;9.23;;;4.65;;
66567;SDS011;53422;49.296;6.900;2023-02-28T17:13:50;3.63;;;1.40;;
66567;SDS011;53422;49.296;6.900;2023-02-28T17:18:51;6.47;;;3.13;;
66567;SDS011;53422;49.296;6.900;2023-02-28T17:21:19;6.28;;;2.88;;
66567;SDS011;53422;49.296;6.900;2023-02-28T17:23:44;5.75;;;2.90;;
66567;SDS011;53422;49.296;6.900;2023-02-28T17:26:14;12.63;;;5.55;;
66567;SDS011;53422;49.296;6.900;2023-02-28T17:28:42;1.60;;;1.00;;
66567;SDS011;53422;49.296;6.900;2023-02-28T17:31:08;8.40;;;4.10;;
66567;SDS011;53422;49.296;6.900;2023-02-28T17:33:34;8.55;;;4.05;;
66567;SDS011;53422;49.296;6.900;2023-02-28T17:36:00;5.10;;;2.25;;
66567;SDS011;53422;49.296;6.900;2023-02-28T17:38:26;10.00;;;4.03;;
66567;SDS011;53422;49.296;6.900;2023-02-28T17:40:52;6.80;;;3.28;;
66567;SDS011;53422;49.296;6.900;2023-02-28T17:43:22;9.05;;;3.88;;
66567;SDS011;53422;49.296;6.900;2023-02-28T17:45:51;4.85;;;2.42;;
66567;SDS011;53422;49.296;6.900;2023-02-28T17:48:17;10.93;;;4.13;;
66567;SDS011;53422;49.296;6.900;2023-02-28T17:50:43;8.43;;;3.85;;
66567;SDS011;53422;49.296;6.900;2023-02-28T17:53:09;6.32;;;3.45;;
66567;SDS011;53422;49.296;6.900;2023-02-28T17:55:35;9.05;;;3.50;;
66567;SDS011;53422;49.296;6.900;2023-02-28T17:58:01;12.68;;;4.80;;
66567;SDS011;53422;49.296;6.900;2023-02-28T18:00:28;6.45;;;2.33;;
66567;SDS011;53422;49.296;6.900;2023-02-28T18:02:54;8.48;;;3.25;;